Home > Products > Valid Products > TAF

000
FTPA31 PHFO 291100
TAFHNL
TAF
PHNL 291136Z 2912/3018 16004KT P6SM SCT035 BKN050
     FM291500 34005KT P6SM SCT035 BKN050
     FM292100 24009KT P6SM VCSH SCT025 BKN040
     FM300500 29005KT P6SM SCT025 SCT040=



000
FTPA31 PHFO 291100
TAFHNL
TAF
PHNL 291136Z 2912/3018 16004KT P6SM SCT035 BKN050
     FM291500 34005KT P6SM SCT035 BKN050
     FM292100 24009KT P6SM VCSH SCT025 BKN040
     FM300500 29005KT P6SM SCT025 SCT040=



000
FTPA31 PHFO 290900 AAA
TAFHNL
TAF AMD
PHNL 290906Z 2909/3012 16004KT P6SM FEW025 BKN050
     FM292100 24007KT P6SM VCSH SCT025 BKN040=



000
FTPA31 PHFO 290900 AAA
TAFHNL
TAF AMD
PHNL 290906Z 2909/3012 16004KT P6SM FEW025 BKN050
     FM292100 24007KT P6SM VCSH SCT025 BKN040=



000
FTPA31 PHFO 290500
TAFHNL
TAF
PHNL 290524Z 2906/3012 VRB04KT P6SM FEW025 BKN050
     FM292100 24007KT P6SM VCSH SCT025 BKN040=



000
FTPA31 PHFO 290500
TAFHNL
TAF
PHNL 290524Z 2906/3012 VRB04KT P6SM FEW025 BKN050
     FM292100 24007KT P6SM VCSH SCT025 BKN040=



000
FTPA31 PHFO 290300 AAA
TAFHNL
TAF AMD
PHNL 290301Z 2903/3006 20008KT P6SM FEW030 SCT050
     FM290400 25005KT P6SM FEW030 SCT050
     FM290600 33004KT P6SM FEW025 SCT045
     FM292100 21007KT P6SM VCSH SCT025 BKN040
     FM300000 25008KT P6SM VCSH SCT025 BKN040=



000
FTPA31 PHFO 290300 AAA
TAFHNL
TAF AMD
PHNL 290301Z 2903/3006 20008KT P6SM FEW030 SCT050
     FM290400 25005KT P6SM FEW030 SCT050
     FM290600 33004KT P6SM FEW025 SCT045
     FM292100 21007KT P6SM VCSH SCT025 BKN040
     FM300000 25008KT P6SM VCSH SCT025 BKN040=



000
FTPA31 PHFO 282300
TAFHNL
TAF
PHNL 282325Z 2900/3006 21008KT P6SM FEW030 SCT050
     FM290300 25006KT P6SM FEW030 SCT050
     FM290500 33004KT P6SM FEW025 BKN045
     FM292100 21007KT P6SM VCSH SCT025 BKN040
     FM300000 25008KT P6SM VCSH SCT025 BKN040=



000
FTPA31 PHFO 282300
TAFHNL
TAF
PHNL 282325Z 2900/3006 21008KT P6SM FEW030 SCT050
     FM290300 25006KT P6SM FEW030 SCT050
     FM290500 33004KT P6SM FEW025 BKN045
     FM292100 21007KT P6SM VCSH SCT025 BKN040
     FM300000 25008KT P6SM VCSH SCT025 BKN040=



000
FTPA31 PHFO 282100 AAA
TAFHNL
TAF AMD
PHNL 282103Z 2821/2924 18008KT P6SM FEW030 SCT050
     FM290300 22006KT P6SM FEW030 BKN050
     FM290500 34004KT P6SM FEW025 BKN045
     FM292100 20005KT P6SM VCSH SCT025 BKN040=



000
FTPA31 PHFO 282100 AAA
TAFHNL
TAF AMD
PHNL 282103Z 2821/2924 18008KT P6SM FEW030 SCT050
     FM290300 22006KT P6SM FEW030 BKN050
     FM290500 34004KT P6SM FEW025 BKN045
     FM292100 20005KT P6SM VCSH SCT025 BKN040=



000
FTPA31 PHFO 281700
TAFHNL
TAF
PHNL 281730Z 2818/2924 VRB03KT P6SM FEW030 BKN050
     FM282100 18008KT P6SM FEW030 SCT050
     FM290300 22006KT P6SM FEW030 BKN050
     FM290500 34004KT P6SM FEW025 BKN045
     FM292100 20005KT P6SM VCSH SCT025 BKN040=



000
FTPA31 PHFO 281400 AAA
TAFHNL
TAF AMD
PHNL 281500Z 2815/2918 34003KT P6SM FEW030 BKN045
     FM282100 19008KT P6SM FEW030 SCT045
     FM290500 35006KT P6SM FEW030=



000
FTPA31 PHFO 281400 AAA
TAFHNL
TAF AMD
PHNL 281500Z 2815/2918 34003KT P6SM FEW030 BKN045
     FM282100 19008KT P6SM FEW030 SCT045
     FM290500 35006KT P6SM FEW030=



000
FTPA31 PHFO 281100
TAFHNL
TAF
PHNL 281123Z 2812/2918 34003KT P6SM FEW030 BKN050
     FM282100 19008KT P6SM FEW030 SCT045
     FM290500 35006KT P6SM FEW030=



000
FTPA31 PHFO 281100
TAFHNL
TAF
PHNL 281123Z 2812/2918 34003KT P6SM FEW030 BKN050
     FM282100 19008KT P6SM FEW030 SCT045
     FM290500 35006KT P6SM FEW030=



000
FTPA31 PHFO 280900 AAA
TAFHNL
TAF AMD
PHNL 280905Z 2809/2912 02005KT P6SM FEW030 BKN050
     FM281200 34003KT P6SM FEW030 BKN050
     FM282100 19008KT P6SM FEW030 SCT045
     FM290400 30005KT P6SM FEW030 SCT045
     FM291000 35006KT P6SM FEW030=



000
FTPA31 PHFO 280900 AAA
TAFHNL
TAF AMD
PHNL 280905Z 2809/2912 02005KT P6SM FEW030 BKN050
     FM281200 34003KT P6SM FEW030 BKN050
     FM282100 19008KT P6SM FEW030 SCT045
     FM290400 30005KT P6SM FEW030 SCT045
     FM291000 35006KT P6SM FEW030=



000
FTPA31 PHFO 280900 AAA
TAFHNL
TAF AMD
PHNL 280905Z 2809/2912 02005KT P6SM FEW030 BKN050
     FM281200 34003KT P6SM FEW030 BKN050
     FM282100 19008KT P6SM FEW030 SCT045
     FM290400 30005KT P6SM FEW030 SCT045
     FM291000 35006KT P6SM FEW030=



000
FTPA31 PHFO 280900 AAA
TAFHNL
TAF AMD
PHNL 280905Z 2809/2912 02005KT P6SM FEW030 BKN050
     FM281200 34003KT P6SM FEW030 BKN050
     FM282100 19008KT P6SM FEW030 SCT045
     FM290400 30005KT P6SM FEW030 SCT045
     FM291000 35006KT P6SM FEW030=



000
FTPA31 PHFO 280500
TAFHNL
TAF
PHNL 280520Z 2806/2912 06008KT P6SM FEW030 SCT050
     FM280800 02005KT P6SM FEW030 SCT050
     FM281200 34003KT P6SM FEW030
     FM282100 19008KT P6SM FEW030 SCT045
     FM290400 30005KT P6SM FEW030 SCT045
     FM291000 35006KT P6SM FEW030=



000
FTPA31 PHFO 280500
TAFHNL
TAF
PHNL 280520Z 2806/2912 06008KT P6SM FEW030 SCT050
     FM280800 02005KT P6SM FEW030 SCT050
     FM281200 34003KT P6SM FEW030
     FM282100 19008KT P6SM FEW030 SCT045
     FM290400 30005KT P6SM FEW030 SCT045
     FM291000 35006KT P6SM FEW030=



000
FTPA31 PHFO 280300 AAA
TAFHNL
TAF AMD
PHNL 280300Z 2803/2906 07010KT P6SM FEW030
     FM280400 06006KT P6SM FEW030
     FM280900 34003KT P6SM SKC
     FM282100 17008KT P6SM FEW030 SCT045
     FM290400 25005KT P6SM SCT030 SCT045=



000
FTPA31 PHFO 280300 AAA
TAFHNL
TAF AMD
PHNL 280300Z 2803/2906 07010KT P6SM FEW030
     FM280400 06006KT P6SM FEW030
     FM280900 34003KT P6SM SKC
     FM282100 17008KT P6SM FEW030 SCT045
     FM290400 25005KT P6SM SCT030 SCT045=



000
FTPA31 PHFO 280300 AAA
TAFHNL
TAF AMD
PHNL 280300Z 2803/2906 07010KT P6SM FEW030
     FM280400 06006KT P6SM FEW030
     FM280900 34003KT P6SM SKC
     FM282100 17008KT P6SM FEW030 SCT045
     FM290400 25005KT P6SM SCT030 SCT045=



000
FTPA31 PHFO 280300 AAA
TAFHNL
TAF AMD
PHNL 280300Z 2803/2906 07010KT P6SM FEW030
     FM280400 06006KT P6SM FEW030
     FM280900 34003KT P6SM SKC
     FM282100 17008KT P6SM FEW030 SCT045
     FM290400 25005KT P6SM SCT030 SCT045=



000
FTPA31 PHFO 272300
TAFHNL
TAF
PHNL 272326Z 2800/2906 07010G15KT P6SM FEW030 SCT050
     FM280400 06006KT P6SM FEW030 SCT050
     FM280900 34003KT P6SM SKC
     FM282100 17008KT P6SM FEW030 SCT045
     FM290400 25005KT P6SM SCT025 BKN045=



000
FTPA31 PHFO 272300
TAFHNL
TAF
PHNL 272326Z 2800/2906 07010G15KT P6SM FEW030 SCT050
     FM280400 06006KT P6SM FEW030 SCT050
     FM280900 34003KT P6SM SKC
     FM282100 17008KT P6SM FEW030 SCT045
     FM290400 25005KT P6SM SCT025 BKN045=



000
FTPA31 PHFO 272200 AAC
TAFHNL
TAF AMD
PHNL 272240Z 2723/2824 07010G15KT P6SM FEW030 SCT050
     FM280400 06006KT P6SM FEW030 SCT050
     FM280900 34003KT P6SM SKC
     FM282100 17008KT P6SM FEW030 SCT045=



000
FTPA31 PHFO 272200 AAC
TAFHNL
TAF AMD
PHNL 272240Z 2723/2824 07010G15KT P6SM FEW030 SCT050
     FM280400 06006KT P6SM FEW030 SCT050
     FM280900 34003KT P6SM SKC
     FM282100 17008KT P6SM FEW030 SCT045=



000
FTPA31 PHFO 272000 AAB
TAFHNL
TAF AMD
PHNL 272045Z 2721/2824 07010G15KT P6SM FEW030 SCT050
      TEMPO 2721/2724 10010KT P6SM FEW030 SCT050
     FM280300 06006KT P6SM FEW030 SCT050
     FM280900 34003KT P6SM SKC
     FM282100 17008KT P6SM FEW030 SCT045=



000
FTPA31 PHFO 272000 AAB
TAFHNL
TAF AMD
PHNL 272045Z 2721/2824 07010G15KT P6SM FEW030 SCT050
      TEMPO 2721/2724 10010KT P6SM FEW030 SCT050
     FM280300 06006KT P6SM FEW030 SCT050
     FM280900 34003KT P6SM SKC
     FM282100 17008KT P6SM FEW030 SCT045=



000
FTPA31 PHFO 271900 AAA
TAFHNL
TAF AMD
PHNL 271952Z 2720/2824 11010KT P6SM FEW030 SCT050
     FM280200 08010KT P6SM FEW030 SCT050
     FM280500 06006KT P6SM FEW030 SCT050
     FM280900 34003KT P6SM SKC
     FM282100 17008KT P6SM FEW030 SCT045=



000
FTPA31 PHFO 271900 AAA
TAFHNL
TAF AMD
PHNL 271952Z 2720/2824 11010KT P6SM FEW030 SCT050
     FM280200 08010KT P6SM FEW030 SCT050
     FM280500 06006KT P6SM FEW030 SCT050
     FM280900 34003KT P6SM SKC
     FM282100 17008KT P6SM FEW030 SCT045=



000
FTPA31 PHFO 271700
TAFHNL
TAF
PHNL 271736Z 2718/2824 VRB03KT P6SM SKC
     FM272000 07010G15KT P6SM FEW030 SCT050
     FM272300 10010KT P6SM FEW030 SCT050
     FM280500 06006KT P6SM FEW030 SCT050
     FM280900 34003KT P6SM SKC
     FM282100 17008KT P6SM FEW030 SCT045=



000
FTPA31 PHFO 271700
TAFHNL
TAF
PHNL 271736Z 2718/2824 VRB03KT P6SM SKC
     FM272000 07010G15KT P6SM FEW030 SCT050
     FM272300 10010KT P6SM FEW030 SCT050
     FM280500 06006KT P6SM FEW030 SCT050
     FM280900 34003KT P6SM SKC
     FM282100 17008KT P6SM FEW030 SCT045=



000
FTPA31 PHFO 271500 AAA
TAFHNL
TAF AMD
PHNL 271505Z 2715/2818 33003KT P6SM FEW030 SCT050
     FM272000 09010G15KT P6SM FEW030 SCT050
     FM280500 04006KT P6SM FEW030 SCT050
     FM280900 34003KT P6SM FEW030 SCT050=



000
FTPA31 PHFO 271100
TAFHNL
TAF
PHNL 271137Z 2712/2818 34003KT P6SM FEW030 SCT050
     FM272000 09011G16KT P6SM FEW030 SCT050
     FM280500 04006KT P6SM FEW030 SCT050
     FM280900 34003KT P6SM FEW030 SCT050=



000
FTPA31 PHFO 270900 AAA
TAFHNL
TAF AMD
PHNL 270905Z 2709/2812 02004KT P6SM FEW030 SCT050
     FM272000 08011G16KT P6SM FEW030 SCT050
     FM280500 04007KT P6SM FEW030 SCT050=



000
FTPA31 PHFO 270900 AAA
TAFHNL
TAF AMD
PHNL 270905Z 2709/2812 02004KT P6SM FEW030 SCT050
     FM272000 08011G16KT P6SM FEW030 SCT050
     FM280500 04007KT P6SM FEW030 SCT050=



000
FTPA31 PHFO 270500
TAFHNL
TAF
PHNL 270535Z 2706/2812 04007KT P6SM FEW030 SCT050
     FM272000 08011G16KT P6SM FEW030 SCT050
     FM280500 04007KT P6SM FEW030 SCT050=



000
FTPA31 PHFO 270500
TAFHNL
TAF
PHNL 270535Z 2706/2812 04007KT P6SM FEW030 SCT050
     FM272000 08011G16KT P6SM FEW030 SCT050
     FM280500 04007KT P6SM FEW030 SCT050=



000
FTPA31 PHFO 270400 AAB
TAFHNL
TAF AMD
PHNL 270457Z 2705/2806 04007KT P6SM FEW030 SCT050
     FM272000 07011KT P6SM FEW035=



000
FTPA31 PHFO 270400 AAB
TAFHNL
TAF AMD
PHNL 270457Z 2705/2806 04007KT P6SM FEW030 SCT050
     FM272000 07011KT P6SM FEW035=



000
FTPA31 PHFO 270300 AAA
TAFHNL
TAF AMD
PHNL 270305Z 2703/2806 05015G22KT P6SM FEW030 SCT050
     FM270700 06008KT P6SM FEW030 SCT050
     FM272000 07011KT P6SM FEW035=



000
FTPA31 PHFO 270300 AAA
TAFHNL
TAF AMD
PHNL 270305Z 2703/2806 05015G22KT P6SM FEW030 SCT050
     FM270700 06008KT P6SM FEW030 SCT050
     FM272000 07011KT P6SM FEW035=



000
FTPA31 PHFO 262300
TAFHNL
TAF
PHNL 262340Z 2700/2806 05015G22KT P6SM FEW030 SCT050
     FM270700 06008KT P6SM FEW030 SCT050
     FM272000 07011KT P6SM FEW035=



000
FTPA31 PHFO 262300
TAFHNL
TAF
PHNL 262340Z 2700/2806 05015G22KT P6SM FEW030 SCT050
     FM270700 06008KT P6SM FEW030 SCT050
     FM272000 07011KT P6SM FEW035=



000
FTPA31 PHFO 262100 AAB
TAFHNL
TAF AMD
PHNL 262106Z 2621/2724 05015G22KT P6SM FEW030 SCT050
     FM270700 06008KT P6SM FEW030 SCT050
     FM272000 07011KT P6SM FEW035=



000
FTPA31 PHFO 262100 AAB
TAFHNL
TAF AMD
PHNL 262106Z 2621/2724 05015G22KT P6SM FEW030 SCT050
     FM270700 06008KT P6SM FEW030 SCT050
     FM272000 07011KT P6SM FEW035=



000
FTPA31 PHFO 261900 AAA
TAFHNL
TAF AMD
PHNL 261930Z 2619/2724 04011G18KT P6SM SCT030
     FM262000 05015G22KT P6SM FEW030 SCT050
     FM270700 06008KT P6SM FEW030 SCT050=



000
FTPA31 PHFO 261900 AAA
TAFHNL
TAF AMD
PHNL 261930Z 2619/2724 04011G18KT P6SM SCT030
     FM262000 05015G22KT P6SM FEW030 SCT050
     FM270700 06008KT P6SM FEW030 SCT050=



000
FTPA31 PHFO 261700
TAFHNL
TAF
PHNL 261740Z 2618/2724 04008KT P6SM SCT030
     FM262000 05015G22KT P6SM FEW030 SCT050
     FM270700 06008KT P6SM FEW030 SCT050=



000
FTPA31 PHFO 261700
TAFHNL
TAF
PHNL 261740Z 2618/2724 04008KT P6SM SCT030
     FM262000 05015G22KT P6SM FEW030 SCT050
     FM270700 06008KT P6SM FEW030 SCT050=



000
FTPA31 PHFO 261400 AAA
TAFHNL
TAF AMD
PHNL 261458Z 2615/2718 04008KT P6SM SCT030 BKN050
     FM262000 05012G22KT P6SM SCT030 BKN050
     FM270700 06008KT P6SM SCT030 BKN050=



000
FTPA31 PHFO 261400 AAA
TAFHNL
TAF AMD
PHNL 261458Z 2615/2718 04008KT P6SM SCT030 BKN050
     FM262000 05012G22KT P6SM SCT030 BKN050
     FM270700 06008KT P6SM SCT030 BKN050=



    US Dept of Commerce
    National Oceanic and Atmospheric Administration
    National Weather Service
    1325 East West Highway
    Silver Spring, MD 20910
    Page Author: NWS Internet Services Team
Disclaimer
Information Quality
Credits
Glossary
Privacy Policy
Freedom of Information Act (FOIA)
About Us
Career Opportunities